createdAt,value
2019-05-18T00:01:50.793Z,99078.37
2019-05-18T00:04:53.719Z,99079.60
2019-05-18T00:07:56.645Z,99079.41
2019-05-18T00:10:59.591Z,99078.57
2019-05-18T00:14:02.541Z,99075.80
2019-05-18T00:17:07.991Z,99071.14
2019-05-18T00:20:10.610Z,99070.16
2019-05-18T00:23:13.803Z,99064.09
2019-05-18T00:26:17.060Z,99065.61
2019-05-18T00:29:20.267Z,99062.81
2019-05-18T00:32:23.292Z,99061.49
2019-05-18T00:35:26.212Z,99056.66
2019-05-18T00:38:29.129Z,99059.70
2019-05-18T00:41:32.438Z,99057.26
2019-05-18T00:44:35.344Z,99060.52
2019-05-18T00:47:41.774Z,99059.70
2019-05-18T00:50:43.101Z,99052.88
2019-05-18T00:53:46.127Z,99049.97
2019-05-18T00:56:49.045Z,99050.44
2019-05-18T00:59:51.948Z,99047.78
2019-05-18T01:02:54.867Z,99045.34
2019-05-18T01:05:57.772Z,99045.25
2019-05-18T01:09:01.119Z,99048.09
2019-05-18T01:12:05.890Z,99050.28
2019-05-18T01:15:10.052Z,99044.98
2019-05-18T01:18:12.966Z,99055.23
2019-05-18T01:21:15.886Z,99051.01
2019-05-18T01:24:18.832Z,99048.44
2019-05-18T01:27:21.733Z,99048.65
2019-05-18T01:30:25.899Z,99044.12
2019-05-18T01:33:28.816Z,99048.48
2019-05-18T01:36:31.725Z,99052.11
2019-05-18T01:39:34.648Z,99055.02
2019-05-18T01:42:37.572Z,99049.98
2019-05-18T01:45:40.483Z,99049.02
2019-05-18T01:48:43.736Z,99052.27
2019-05-18T01:51:46.644Z,99052.16
2019-05-18T01:54:49.573Z,99050.47
2019-05-18T01:57:52.475Z,99053.04
2019-05-18T02:00:55.403Z,99050.59
2019-05-18T02:03:58.311Z,99049.87
2019-05-18T02:07:01.315Z,99047.27
2019-05-18T02:10:06.420Z,99055.11
2019-05-18T02:13:09.707Z,99047.77
2019-05-18T02:16:12.638Z,99052.99
2019-05-18T02:19:15.542Z,99051.19
2019-05-18T02:22:18.459Z,99050.73
2019-05-18T02:25:21.362Z,99053.64
2019-05-18T02:28:24.288Z,99038.27
2019-05-18T02:31:27.219Z,99033.66
2019-05-18T02:34:30.129Z,99039.59
2019-05-18T02:37:33.405Z,99032.25
2019-05-18T02:40:36.328Z,99030.88
2019-05-18T02:43:40.267Z,99024.83
2019-05-18T02:46:43.212Z,99020.41
2019-05-18T02:49:46.145Z,99024.70
2019-05-18T02:52:49.071Z,99019.27
2019-05-18T02:55:52.392Z,99023.50
2019-05-18T02:58:55.332Z,99016.41
2019-05-18T03:01:58.253Z,99014.11
2019-05-18T03:05:01.165Z,99019.45
2019-05-18T03:08:04.200Z,99030.12
2019-05-18T03:11:07.196Z,99021.08
2019-05-18T03:14:10.159Z,99024.39
2019-05-18T03:17:13.079Z,99025.04
2019-05-18T03:20:16.702Z,99026.83
2019-05-18T03:23:19.631Z,99021.09
2019-05-18T03:26:22.530Z,99012.66
2019-05-18T03:29:25.463Z,99012.52
2019-05-18T03:32:28.721Z,99008.92
2019-05-18T03:35:32.649Z,99011.72
2019-05-18T03:38:35.575Z,99011.38
2019-05-18T03:41:39.880Z,99015.18
2019-05-18T03:44:42.803Z,99024.34
2019-05-18T03:47:46.018Z,99027.02
2019-05-18T03:50:48.945Z,99025.37
2019-05-18T03:53:52.271Z,99020.75
2019-05-18T03:56:55.511Z,99028.23
2019-05-18T03:59:58.443Z,99030.47
2019-05-18T04:03:01.346Z,99025.21
2019-05-18T04:06:04.267Z,99025.28
2019-05-18T04:09:07.193Z,99027.08
2019-05-18T04:12:10.121Z,99026.64
2019-05-18T04:15:13.039Z,99029.01
2019-05-18T04:18:15.962Z,99036.93
2019-05-18T04:21:18.889Z,99037.16
2019-05-18T04:24:22.403Z,99031.41
2019-05-18T04:27:25.327Z,99033.55
2019-05-18T04:30:28.489Z,99038.65
2019-05-18T04:33:31.405Z,99036.00
2019-05-18T04:36:34.329Z,99031.45
2019-05-18T04:39:37.241Z,99037.38
2019-05-18T04:42:40.193Z,99036.19
2019-05-18T04:45:43.093Z,99031.77
2019-05-18T04:48:46.026Z,99037.95
2019-05-18T04:51:50.062Z,99038.42
2019-05-18T04:54:52.984Z,99039.56
2019-05-18T04:57:55.909Z,99044.91
2019-05-18T05:00:58.814Z,99042.65
2019-05-18T05:04:01.742Z,99037.93
2019-05-18T05:07:04.647Z,99040.48
2019-05-18T05:10:08.180Z,99037.93
2019-05-18T05:13:11.212Z,99041.66
2019-05-18T05:16:14.144Z,99033.97
2019-05-18T05:19:17.066Z,99039.06
2019-05-18T05:22:19.979Z,99042.17
2019-05-18T05:25:23.288Z,99043.14
2019-05-18T05:28:26.201Z,99044.79
2019-05-18T05:31:29.127Z,99038.05
2019-05-18T05:34:32.348Z,99037.25
2019-05-18T05:37:35.260Z,99041.94
2019-05-18T05:40:38.193Z,99040.95
2019-05-18T05:43:41.111Z,99047.47
2019-05-18T05:46:44.333Z,99044.09
2019-05-18T05:49:47.253Z,99047.14
2019-05-18T05:52:50.808Z,99046.63
2019-05-18T05:55:53.739Z,99040.92
2019-05-18T05:58:56.744Z,99036.68
2019-05-18T06:01:59.671Z,99042.70
2019-05-18T06:05:03.270Z,99043.44
2019-05-18T06:08:06.193Z,99042.22
2019-05-18T06:11:10.246Z,99039.64
2019-05-18T06:14:13.162Z,99041.21
2019-05-18T06:17:17.184Z,99041.52
2019-05-18T06:20:20.090Z,99041.43
2019-05-18T06:23:23.023Z,99041.16
2019-05-18T06:26:25.971Z,99043.83
2019-05-18T06:29:28.864Z,99050.66
2019-05-18T06:32:31.790Z,99046.39
2019-05-18T06:35:35.037Z,99049.00
2019-05-18T06:38:38.312Z,99042.23
2019-05-18T06:41:41.243Z,99044.70
2019-05-18T06:44:44.165Z,99043.48
2019-05-18T06:47:48.448Z,99046.03
2019-05-18T06:51:06.017Z,99046.96
2019-05-18T06:53:56.420Z,99046.19
2019-05-18T06:57:00.233Z,99047.61
2019-05-18T07:00:04.493Z,99044.41
2019-05-18T07:03:10.098Z,99042.66
2019-05-18T07:06:12.990Z,99039.00
2019-05-18T07:09:16.072Z,99042.20
2019-05-18T07:12:18.979Z,99048.39
2019-05-18T07:15:22.332Z,99048.08
2019-05-18T07:18:25.231Z,99046.50
2019-05-18T07:21:28.533Z,99044.00
2019-05-18T07:24:31.450Z,99047.73
2019-05-18T07:27:34.482Z,99048.82
2019-05-18T07:30:37.420Z,99049.86
2019-05-18T07:33:40.323Z,99050.20
2019-05-18T07:36:44.354Z,99050.59
2019-05-18T07:39:47.275Z,99047.75
2019-05-18T07:42:50.187Z,99049.62
2019-05-18T07:45:53.121Z,99043.76
2019-05-18T07:48:56.349Z,99046.95
2019-05-18T07:51:59.279Z,99046.95
2019-05-18T07:55:02.393Z,99046.83
2019-05-18T07:58:05.310Z,99044.14
2019-05-18T08:01:08.225Z,99048.87
2019-05-18T08:04:11.400Z,99057.20
2019-05-18T08:07:14.312Z,99063.39
2019-05-18T08:10:34.661Z,99059.57
2019-05-18T08:13:37.571Z,99061.73
2019-05-18T08:16:40.504Z,99063.66
2019-05-18T08:19:43.404Z,99061.61
2019-05-18T08:22:46.321Z,99054.55
2019-05-18T08:25:49.970Z,99051.80
2019-05-18T08:28:52.898Z,99051.47
2019-05-18T08:31:55.812Z,99053.27
2019-05-18T08:34:58.719Z,99057.05
2019-05-18T08:38:01.664Z,99060.31
2019-05-18T08:41:04.769Z,99061.44
2019-05-18T08:44:08.790Z,99063.84
2019-05-18T08:47:11.739Z,99062.91
2019-05-18T08:50:15.654Z,99066.61
2019-05-18T08:53:18.583Z,99062.02
2019-05-18T08:56:21.764Z,99063.11
2019-05-18T08:59:24.679Z,99064.39
2019-05-18T09:02:27.963Z,99066.73
2019-05-18T09:05:30.864Z,99069.73
2019-05-18T09:08:33.880Z,99070.25
2019-05-18T09:11:36.790Z,99069.39
2019-05-18T09:14:39.711Z,99070.56
2019-05-18T09:17:42.668Z,99071.08
2019-05-18T09:20:45.568Z,99071.52
2019-05-18T09:23:48.486Z,99081.02
2019-05-18T09:26:51.427Z,99078.89
2019-05-18T09:29:54.340Z,99079.81
2019-05-18T09:32:57.336Z,99080.52
2019-05-18T09:36:00.263Z,99072.91
2019-05-18T09:39:04.891Z,99072.52
2019-05-18T09:42:07.969Z,99067.28
2019-05-18T09:45:12.219Z,99076.63
2019-05-18T09:48:15.222Z,99069.82
2019-05-18T09:51:18.155Z,99065.55
2019-05-18T09:54:22.193Z,99068.26
2019-05-18T09:57:25.113Z,99059.30
2019-05-18T10:00:28.153Z,99071.96
2019-05-18T10:03:31.052Z,99075.42
2019-05-18T10:06:33.979Z,99073.69
2019-05-18T10:09:39.420Z,99077.86
2019-05-18T10:12:41.729Z,99074.47
2019-05-18T10:15:44.665Z,99073.58
2019-05-18T10:18:47.574Z,99079.95
2019-05-18T10:21:50.500Z,99078.63
2019-05-18T10:24:53.746Z,99067.84
2019-05-18T10:27:56.678Z,99067.73
2019-05-18T10:30:59.594Z,99068.11
2019-05-18T10:34:02.501Z,99072.84
2019-05-18T10:37:05.437Z,99065.78
2019-05-18T10:40:09.438Z,99062.84
2019-05-18T10:43:12.370Z,99061.82
2019-05-18T10:46:15.363Z,99060.68
2019-05-18T10:49:19.066Z,99062.16
2019-05-18T10:52:21.986Z,99060.59
2019-05-18T10:55:24.923Z,99061.34
2019-05-18T10:58:27.925Z,99067.02
2019-05-18T11:01:31.082Z,99064.37
2019-05-18T11:04:34.043Z,99056.42
2019-05-18T11:07:37.041Z,99055.61
2019-05-18T11:10:39.962Z,99051.47
2019-05-18T11:13:42.901Z,99047.98
2019-05-18T11:16:46.112Z,99046.38
2019-05-18T11:19:49.012Z,99046.75
2019-05-18T11:22:51.987Z,99043.16
2019-05-18T11:25:54.874Z,99042.27
2019-05-18T11:28:57.806Z,99036.38
2019-05-18T11:32:00.710Z,99039.20
2019-05-18T11:35:04.127Z,99042.31
2019-05-18T11:38:07.041Z,99038.61
2019-05-18T11:41:09.961Z,99036.39
2019-05-18T11:44:12.880Z,99034.67
2019-05-18T11:47:15.821Z,99047.44
2019-05-18T11:50:19.398Z,99042.54
2019-05-18T11:53:22.480Z,99043.14
2019-05-18T11:56:25.391Z,99046.67
2019-05-18T11:59:28.413Z,99041.27
2019-05-18T12:02:31.334Z,99037.45
2019-05-18T12:05:34.270Z,99035.22
2019-05-18T12:08:37.164Z,99028.49
2019-05-18T12:11:41.188Z,99024.84
2019-05-18T12:14:44.117Z,99024.16
2019-05-18T12:17:47.057Z,99028.53
2019-05-18T12:20:49.985Z,99030.77
2019-05-18T12:23:53.305Z,99021.70
2019-05-18T12:26:56.235Z,99028.84
2019-05-18T12:29:59.177Z,99029.62
2019-05-18T12:33:02.085Z,99031.41
2019-05-18T12:36:05.902Z,99021.94
2019-05-18T12:39:08.990Z,99021.22
2019-05-18T12:42:12.364Z,99025.78
2019-05-18T12:45:19.210Z,99022.38
2019-05-18T12:48:22.147Z,99024.68
2019-05-18T12:51:25.100Z,99026.02
2019-05-18T12:54:34.009Z,99023.02
2019-05-18T12:57:33.233Z,99026.91
2019-05-18T13:00:36.134Z,99019.77
2019-05-18T13:03:39.071Z,99023.33
2019-05-18T13:06:41.979Z,99023.02
2019-05-18T13:09:44.927Z,99021.25
2019-05-18T13:12:47.868Z,99020.08
2019-05-18T13:15:50.802Z,99014.94
2019-05-18T13:18:54.365Z,99013.88
2019-05-18T13:21:57.278Z,99013.81
2019-05-18T13:25:00.197Z,99007.36
2019-05-18T13:28:03.118Z,98998.34
2019-05-18T13:31:06.150Z,98997.40
2019-05-18T13:34:09.436Z,98995.42
2019-05-18T13:37:12.344Z,98997.61
2019-05-18T13:40:16.082Z,98999.65
2019-05-18T13:43:18.989Z,99000.48
2019-05-18T13:46:21.948Z,98992.78
2019-05-18T13:49:25.246Z,98991.78
2019-05-18T13:52:28.155Z,98989.97
2019-05-18T13:55:31.089Z,98991.97
2019-05-18T13:58:34.001Z,98987.66
2019-05-18T14:01:36.943Z,98988.42
2019-05-18T14:04:39.864Z,98991.72
2019-05-18T14:07:42.846Z,98996.13
2019-05-18T14:10:45.858Z,98998.44
2019-05-18T14:13:48.840Z,98994.68
2019-05-18T14:16:51.799Z,98991.98
2019-05-18T14:19:54.701Z,98990.68
2019-05-18T14:22:57.735Z,98995.31
2019-05-18T14:26:00.911Z,98990.39
2019-05-18T14:29:04.049Z,98987.92
2019-05-18T14:32:07.184Z,98991.31
2019-05-18T14:35:11.293Z,98993.83
2019-05-18T14:38:14.252Z,99001.14
2019-05-18T14:41:17.248Z,99004.65
2019-05-18T14:44:20.659Z,99011.46
2019-05-18T14:47:26.875Z,99018.64
2019-05-18T14:50:28.395Z,99025.67
2019-05-18T14:53:31.720Z,99019.59
2019-05-18T14:56:34.625Z,99027.45
2019-05-18T14:59:37.881Z,99038.55
2019-05-18T15:02:40.778Z,99041.70
2019-05-18T15:05:43.723Z,99033.47
2019-05-18T15:08:46.952Z,99038.88
2019-05-18T15:11:49.884Z,99034.70
2019-05-18T15:14:53.166Z,99040.27
2019-05-18T15:17:56.113Z,99029.50
2019-05-18T15:20:59.105Z,99026.75
2019-05-18T15:24:02.151Z,99018.80
2019-05-18T15:27:05.058Z,99024.63
2019-05-18T15:30:09.593Z,99029.27
2019-05-18T15:33:12.520Z,99020.20
2019-05-18T15:36:15.948Z,99026.24
2019-05-18T15:39:19.208Z,99024.91
2019-05-18T15:42:22.205Z,99032.34
2019-05-18T15:45:25.160Z,99036.55
2019-05-18T15:48:28.135Z,99041.78
2019-05-18T15:51:31.086Z,99046.30
2019-05-18T15:54:36.177Z,99041.54
2019-05-18T15:57:38.862Z,99049.35
2019-05-18T16:00:41.796Z,99049.97
2019-05-18T16:03:44.740Z,99051.33
2019-05-18T16:06:48.079Z,99047.92
2019-05-18T16:09:51.230Z,99039.88
2019-05-18T16:12:54.207Z,99037.09
2019-05-18T16:15:57.114Z,99039.18
2019-05-18T16:19:00.555Z,99041.45
2019-05-18T16:22:03.607Z,99042.18
2019-05-18T16:25:07.171Z,99040.67
2019-05-18T16:28:10.296Z,99041.73
2019-05-18T16:31:13.262Z,99038.65
2019-05-18T16:34:16.499Z,99038.98
2019-05-18T16:37:19.412Z,99037.51
2019-05-18T16:40:22.773Z,99044.28
2019-05-18T16:43:25.831Z,99040.41
2019-05-18T16:46:28.737Z,99042.28
2019-05-18T16:49:31.788Z,99043.80
2019-05-18T16:52:34.750Z,99045.77
2019-05-18T16:55:37.672Z,99044.03
2019-05-18T16:58:40.613Z,99048.47
2019-05-18T17:01:43.545Z,99044.44
2019-05-18T17:04:47.278Z,99044.98
2019-05-18T17:07:50.187Z,99046.48
2019-05-18T17:10:53.111Z,99047.10
2019-05-18T17:13:56.067Z,99046.91
2019-05-18T17:17:00.164Z,99047.98
2019-05-18T17:20:03.830Z,99043.36
2019-05-18T17:23:07.126Z,99042.75
2019-05-18T17:26:10.058Z,99037.84
2019-05-18T17:29:13.341Z,99032.58
2019-05-18T17:32:16.289Z,99032.55
2019-05-18T17:35:19.457Z,99028.26
2019-05-18T17:38:22.393Z,99027.39
2019-05-18T17:41:25.309Z,99034.20
2019-05-18T17:44:28.307Z,99037.81
2019-05-18T17:47:31.233Z,99038.91
2019-05-18T17:50:35.273Z,99032.77
2019-05-18T17:53:38.459Z,99035.89
2019-05-18T17:56:41.477Z,99039.51
2019-05-18T17:59:44.386Z,99045.97
2019-05-18T18:02:48.346Z,99045.28
2019-05-18T18:05:51.438Z,99046.45
2019-05-18T18:08:54.685Z,99041.15
2019-05-18T18:11:57.728Z,99041.86
2019-05-18T18:15:00.739Z,99043.47
2019-05-18T18:18:04.039Z,99044.03
2019-05-18T18:21:07.000Z,99041.02
2019-05-18T18:24:09.926Z,99036.75
2019-05-18T18:27:24.589Z,99037.33
2019-05-18T18:30:17.776Z,99037.16
2019-05-18T18:33:21.174Z,99032.27
2019-05-18T18:36:24.094Z,99036.12
2019-05-18T18:39:27.062Z,99039.99
2019-05-18T18:42:30.021Z,99044.83
2019-05-18T18:45:32.931Z,99049.36
2019-05-18T18:48:36.004Z,99040.29
2019-05-18T18:51:38.938Z,99044.08
2019-05-18T18:54:42.210Z,99044.79
2019-05-18T18:57:45.580Z,99051.03
2019-05-18T19:00:48.485Z,99052.65
2019-05-18T19:03:51.933Z,99051.46
2019-05-18T19:06:54.828Z,99056.57
2019-05-18T19:09:57.897Z,99055.48
2019-05-18T19:13:01.115Z,99061.75
2019-05-18T19:16:04.058Z,99070.34
2019-05-18T19:19:07.175Z,99076.23
2019-05-18T19:22:10.823Z,99076.02
2019-05-18T19:25:13.868Z,99089.25
2019-05-18T19:28:16.838Z,99093.50
2019-05-18T19:31:19.779Z,99092.13
2019-05-18T19:34:22.740Z,99101.09
2019-05-18T19:37:26.537Z,99108.09
2019-05-18T19:40:29.679Z,99109.91
2019-05-18T19:43:32.610Z,99114.16
2019-05-18T19:46:35.691Z,99110.82
2019-05-18T19:49:38.663Z,99106.80
2019-05-18T19:52:42.057Z,99109.00
2019-05-18T19:55:45.104Z,99102.28
2019-05-18T19:58:48.324Z,99102.63
2019-05-18T20:01:51.759Z,99111.61
2019-05-18T20:05:06.617Z,99109.42
2019-05-18T20:07:59.542Z,99106.25
2019-05-18T20:11:03.091Z,99101.25
2019-05-18T20:14:06.394Z,99111.61
2019-05-18T20:17:09.459Z,99116.17
2019-05-18T20:20:14.183Z,99115.06
2019-05-18T20:23:17.577Z,99121.14
2019-05-18T20:26:20.527Z,99117.04
2019-05-18T20:29:23.555Z,99121.45
2019-05-18T20:32:26.699Z,99122.95
2019-05-18T20:35:29.656Z,99127.28
2019-05-18T20:38:33.738Z,99116.80
2019-05-18T20:41:36.941Z,99122.88
2019-05-18T20:44:40.273Z,99122.78
2019-05-18T20:47:43.943Z,99115.65
2019-05-18T20:50:47.026Z,99115.85
2019-05-18T20:53:49.940Z,99117.45
2019-05-18T20:56:53.402Z,99114.70
2019-05-18T20:59:56.562Z,99114.77
2019-05-18T21:02:59.848Z,99120.25
2019-05-18T21:06:02.842Z,99114.52
2019-05-18T21:09:06.172Z,99110.60
2019-05-18T21:12:09.412Z,99105.08
2019-05-18T21:15:13.225Z,99105.09
2019-05-18T21:18:16.260Z,99102.08
2019-05-18T21:21:24.673Z,99094.73
2019-05-18T21:24:24.200Z,99103.52
2019-05-18T21:27:27.368Z,99107.27
2019-05-18T21:30:30.873Z,99101.55
2019-05-18T21:33:33.796Z,99106.95
2019-05-18T21:36:37.192Z,99101.52
2019-05-18T21:39:40.110Z,99102.76
2019-05-18T21:42:43.088Z,99103.92
2019-05-18T21:45:46.012Z,99102.88
2019-05-18T21:48:48.920Z,99106.02
2019-05-18T21:51:52.270Z,99105.34
2019-05-18T21:54:56.128Z,99107.06
2019-05-18T21:57:59.061Z,99105.64
2019-05-18T22:01:02.611Z,99103.43
2019-05-18T22:04:05.627Z,99104.16
2019-05-18T22:07:08.576Z,99104.84
2019-05-18T22:10:24.807Z,99103.04
2019-05-18T22:13:16.314Z,99099.31
2019-05-18T22:16:19.589Z,99094.83
2019-05-18T22:19:23.595Z,99092.98
2019-05-18T22:22:26.547Z,99095.67
2019-05-18T22:25:29.454Z,99092.34
2019-05-18T22:28:32.751Z,99090.52
2019-05-18T22:31:35.716Z,99087.84
2019-05-18T22:34:38.631Z,99092.10
2019-05-18T22:37:41.935Z,99085.64
2019-05-18T22:40:44.840Z,99091.55
2019-05-18T22:43:47.763Z,99093.44
2019-05-18T22:46:50.672Z,99096.20
2019-05-18T22:49:53.594Z,99100.11
2019-05-18T22:52:56.551Z,99088.09
2019-05-18T22:55:59.528Z,99095.78
2019-05-18T22:59:02.486Z,99097.88
2019-05-18T23:02:05.400Z,99097.78
2019-05-18T23:05:08.544Z,99097.14
2019-05-18T23:08:11.478Z,99096.45
2019-05-18T23:11:14.474Z,99093.14
2019-05-18T23:14:17.405Z,99086.36
2019-05-18T23:17:20.340Z,99095.90
2019-05-18T23:20:23.288Z,99092.41
2019-05-18T23:23:26.666Z,99092.20
2019-05-18T23:26:29.569Z,99090.55
2019-05-18T23:29:32.491Z,99084.30
2019-05-18T23:32:35.395Z,99085.78
2019-05-18T23:35:38.319Z,99082.83
2019-05-18T23:38:41.235Z,99079.56
2019-05-18T23:41:44.228Z,99075.25
2019-05-18T23:44:47.150Z,99073.91
2019-05-18T23:47:50.281Z,99076.91
2019-05-18T23:50:53.205Z,99071.66
2019-05-18T23:53:56.426Z,99065.64
2019-05-18T23:56:59.347Z,99066.16
